タシュケント の空港の天気 - METARとTAF

タシケント空港 ( UTTT / TAS ) - ウズベキスタン タシュケント
飛行場実況気象(Metar)
観測時間07/18 09:30 UZT (07/18 04:30 UTC)
風向・風速南南東 3m/s
視程7000m
天気現象
なし
気温31℃
湿度36%
気圧1003hPa
METARUTTT 180430Z 15006KT 110V190 7000 NSC 31/14 Q1003 R08L/CLRD70 NOSIG
過去の天気等 Google飛行場航空写真 Wunderground天気予報

過去48時間のMETAR

飛行場予報(TAF)
発表時間: 7/18 04:00 UZT (7/17 23:00 UTC)
予報対象時間: 18日5時 UZT ~ 19日5時 UZT
風向・風速東北東 5m/s
視程7000m
なし
18日11時 UZT ~ 18日20時 UZT に一時的に
風向・風速南西 5m/s 瞬間風速 10m/s
TAF UTTT 172300Z 1800/1824 07010KT 7000 NSC TX40/1810Z
TEMPO 1806/1815 22010G20KT